Lake Station, Michigan
Current Conditions -  °F | °C
As of 3:35 AM on Monday 24 Nov 2014 (Local Time) from KMOP Reporting Station
Moderate Rain Moderate Rain  
Wind Chill: 49°   Ceiling: 300
Heat Index: 49°   Visibility: 1.5mi
Dew Point: 48°   Wind: 0mph
Humidity: 98%   Direction: NA
Pressure: 28.99"   Gusts: NA
Location:  43.8696°N, 85.0147°W
Report Text: KMOP 240835Z AUTO 00000KT 1 1/2SM RA OVC003 09/09 A2899 RMK AO2 P0003 T00930090
Loading
Personal Weather Stations






























Interactive Weather Map New forecast layout! Learn more

10-Day Weather Forecast

Advertisements
Track Severe Weather on mobile